Time;durP1;ratioP1;P1;durP2;ratioP2;P2;SDS_P1;SDS_P2;PMS_P1;PMS_P2;Temp;Humidity;BMP_temperature;BMP_pressure;BME280_temperature;BME280_humidity;BME280_pressure;Samples;Min_cycle;Max_cycle;Signal;HPM_P1;HPM_P2
2021/10/27 00:01:32;;;;;;;8.97;5.47;;;13.40;99.90;;;;;;5026013;28;20281;-61
2021/10/27 00:04:39;;;;;;;15.53;5.93;;;13.50;99.90;;;;;;5033440;28;20204;-61
2021/10/27 00:07:45;;;;;;;8.53;5.33;;;13.40;99.90;;;;;;5019383;28;20228;-61
2021/10/27 00:10:15;;;;;;;9.33;5.90;;;13.40;99.90;;;;;;5024495;28;20192;-61
2021/10/27 00:12:43;;;;;;;10.80;5.80;;;13.40;99.90;;;;;;5025636;28;20209;-61
2021/10/27 00:15:14;;;;;;;9.37;5.30;;;13.40;99.90;;;;;;5029836;28;20280;-61
2021/10/27 00:17:43;;;;;;;11.70;5.67;;;13.50;99.90;;;;;;5035595;28;20320;-61
2021/10/27 00:20:13;;;;;;;7.90;5.40;;;13.50;99.90;;;;;;5028471;28;20281;-61
2021/10/27 00:22:42;;;;;;;13.03;5.33;;;13.50;99.90;;;;;;5034184;28;20268;-61
2021/10/27 00:25:11;;;;;;;7.23;5.17;;;13.50;99.90;;;;;;5023693;28;20278;-61
2021/10/27 00:27:40;;;;;;;9.73;5.10;;;13.50;99.90;;;;;;5030293;28;20225;-60
2021/10/27 00:30:09;;;;;;;8.90;5.20;;;13.50;99.90;;;;;;5030132;28;20197;-61
2021/10/27 00:32:38;;;;;;;8.37;5.33;;;13.50;99.90;;;;;;5029897;28;20303;-61
2021/10/27 00:35:08;;;;;;;17.93;5.87;;;13.50;99.90;;;;;;5033426;28;20194;-61
2021/10/27 00:37:38;;;;;;;12.03;5.43;;;13.50;99.90;;;;;;5028635;28;20197;-61
2021/10/27 00:40:07;;;;;;;8.80;5.17;;;13.50;99.90;;;;;;5029608;28;20630;-61
2021/10/27 00:42:36;;;;;;;10.90;5.23;;;13.50;99.90;;;;;;5007745;28;20212;-61
2021/10/27 00:45:05;;;;;;;9.57;5.50;;;13.60;99.90;;;;;;5025047;28;20289;-60
2021/10/27 00:47:33;;;;;;;7.20;4.60;;;13.60;99.90;;;;;;5026100;28;20634;-61
2021/10/27 00:50:02;;;;;;;10.93;5.00;;;13.50;99.90;;;;;;5034168;28;20751;-61
2021/10/27 00:52:30;;;;;;;11.67;5.80;;;13.50;99.90;;;;;;5029965;28;20312;-61
2021/10/27 00:55:00;;;;;;;9.37;4.80;;;13.40;99.90;;;;;;5028708;28;20197;-60
2021/10/27 00:57:28;;;;;;;11.83;5.47;;;13.40;99.90;;;;;;5050650;28;20319;-61
2021/10/27 00:59:57;;;;;;;8.77;5.00;;;13.30;99.90;;;;;;5047291;28;20197;-61
2021/10/27 01:02:25;;;;;;;10.77;5.20;;;13.20;99.90;;;;;;5051548;28;20192;-61
2021/10/27 01:04:54;;;;;;;13.27;5.57;;;13.10;99.90;;;;;;5045546;28;20206;-61
2021/10/27 01:07:23;;;;;;;8.37;5.40;;;13.10;99.90;;;;;;5048407;28;20197;-61
2021/10/27 01:09:51;;;;;;;9.20;5.60;;;13.00;99.90;;;;;;5055126;28;20228;-61
2021/10/27 01:12:21;;;;;;;12.87;5.47;;;13.00;99.90;;;;;;5055037;28;20196;-61
2021/10/27 01:14:49;;;;;;;10.80;5.23;;;13.00;99.90;;;;;;5041034;28;20225;-61
2021/10/27 01:17:19;;;;;;;8.73;5.00;;;12.90;99.90;;;;;;5049480;28;20744;-61
2021/10/27 01:19:51;;;;;;;11.17;5.17;;;12.80;99.90;;;;;;5045906;28;20188;-61
2021/10/27 01:22:23;;;;;;;11.47;5.47;;;12.80;99.90;;;;;;5047419;28;20292;-61
2021/10/27 01:24:53;;;;;;;8.33;5.27;;;12.80;99.90;;;;;;5045597;28;20284;-61
2021/10/27 01:27:21;;;;;;;9.63;5.53;;;12.80;99.90;;;;;;5049304;28;20197;-60
2021/10/27 01:29:50;;;;;;;13.27;5.70;;;12.80;99.90;;;;;;5031775;28;20661;-61
2021/10/27 01:32:23;;;;;;;10.83;5.40;;;12.70;99.90;;;;;;5045436;28;20283;-60
2021/10/27 01:34:53;;;;;;;8.40;5.30;;;12.70;99.90;;;;;;5050912;28;20201;-61
2021/10/27 01:37:22;;;;;;;14.73;6.07;;;12.60;99.90;;;;;;5033823;28;20288;-60
2021/10/27 01:39:52;;;;;;;16.13;5.27;;;12.60;99.90;;;;;;5054273;28;20214;-61
2021/10/27 01:42:21;;;;;;;10.33;5.83;;;12.50;99.90;;;;;;5048110;28;20665;-61
2021/10/27 01:44:50;;;;;;;13.20;5.57;;;12.60;99.90;;;;;;5029307;28;20193;-61
2021/10/27 01:47:19;;;;;;;15.80;5.97;;;12.50;99.90;;;;;;5046245;28;20681;-60
2021/10/27 01:49:48;;;;;;;14.80;5.93;;;12.50;99.90;;;;;;5046018;28;20268;-61
2021/10/27 01:52:18;;;;;;;8.27;5.67;;;12.40;99.90;;;;;;5053730;28;20726;-61
2021/10/27 01:54:46;;;;;;;11.00;6.13;;;12.50;99.90;;;;;;5049090;28;20209;-60
2021/10/27 01:57:15;;;;;;;11.13;5.90;;;12.50;99.90;;;;;;5047717;28;20271;-61
2021/10/27 01:59:44;;;;;;;7.23;5.67;;;12.50;99.90;;;;;;5047309;28;20211;-61
2021/10/27 02:02:12;;;;;;;8.70;5.50;;;12.40;99.90;;;;;;5048751;28;20449;-61
2021/10/27 02:04:41;;;;;;;11.17;5.83;;;12.40;99.90;;;;;;5047435;28;20220;-61
2021/10/27 02:07:09;;;;;;;12.07;5.60;;;12.40;99.90;;;;;;5045511;28;20275;-61
2021/10/27 02:09:39;;;;;;;13.30;6.60;;;12.50;99.90;;;;;;5044567;28;20227;-60
2021/10/27 02:12:08;;;;;;;10.57;6.17;;;12.60;99.90;;;;;;5050293;28;20271;-60
2021/10/27 02:14:37;;;;;;;12.87;5.87;;;12.60;99.90;;;;;;5030991;28;20562;-61
2021/10/27 02:17:05;;;;;;;15.27;5.67;;;12.60;99.90;;;;;;5048800;28;20224;-61
2021/10/27 02:19:34;;;;;;;10.17;6.17;;;12.70;99.90;;;;;;5046476;28;20188;-60
2021/10/27 02:22:03;;;;;;;10.13;5.63;;;12.80;99.90;;;;;;5030025;28;20287;-60
2021/10/27 02:24:31;;;;;;;8.70;5.63;;;12.80;99.90;;;;;;5043504;28;20279;-60
2021/10/27 02:27:01;;;;;;;13.33;5.70;;;12.90;99.90;;;;;;5047898;28;20232;-61
2021/10/27 02:29:30;;;;;;;10.90;5.67;;;12.90;99.90;;;;;;5044850;28;20272;-61
2021/10/27 02:31:58;;;;;;;10.53;5.60;;;12.90;99.90;;;;;;5051811;28;20204;-61
2021/10/27 02:34:27;;;;;;;14.83;5.97;;;13.00;99.90;;;;;;5045085;28;20228;-61
2021/10/27 02:36:55;;;;;;;11.87;5.57;;;13.00;99.90;;;;;;5047370;28;20322;-61
2021/10/27 02:39:23;;;;;;;11.77;5.50;;;13.10;99.90;;;;;;5044514;28;20664;-61
2021/10/27 02:41:52;;;;;;;11.57;5.40;;;13.10;99.90;;;;;;5039143;28;20190;-61
2021/10/27 02:44:22;;;;;;;11.73;5.93;;;13.10;99.90;;;;;;5047042;28;20192;-61
2021/10/27 02:46:51;;;;;;;12.20;5.40;;;13.10;99.90;;;;;;5048468;28;20229;-60
2021/10/27 02:49:19;;;;;;;10.43;5.70;;;13.10;99.90;;;;;;5032061;28;20661;-60
2021/10/27 02:51:47;;;;;;;10.67;5.23;;;13.10;99.90;;;;;;5051756;28;20279;-60
2021/10/27 02:54:16;;;;;;;13.60;5.93;;;13.10;99.90;;;;;;5033975;28;20217;-60
2021/10/27 02:56:45;;;;;;;8.57;5.17;;;13.10;99.90;;;;;;5044579;28;20244;-60
2021/10/27 02:59:13;;;;;;;8.60;5.57;;;13.20;99.90;;;;;;5047354;28;20647;-59
2021/10/27 03:01:43;;;;;;;7.17;5.27;;;13.20;99.90;;;;;;5051275;28;20292;-61
2021/10/27 03:04:12;;;;;;;14.03;6.10;;;13.20;99.90;;;;;;5051136;28;20200;-61
2021/10/27 03:06:41;;;;;;;13.20;6.43;;;13.10;99.90;;;;;;5047209;28;20276;-60
2021/10/27 03:09:09;;;;;;;12.33;5.87;;;13.10;99.90;;;;;;5052497;28;20626;-61
2021/10/27 03:11:37;;;;;;;7.47;5.77;;;13.10;99.90;;;;;;5047713;28;20299;-60
2021/10/27 03:14:06;;;;;;;9.00;5.83;;;13.10;99.90;;;;;;5051407;28;20236;-58
2021/10/27 03:16:34;;;;;;;10.00;6.07;;;13.10;99.90;;;;;;5054752;28;20204;-61
2021/10/27 03:19:04;;;;;;;12.00;6.17;;;13.10;99.90;;;;;;5050509;28;20576;-61
2021/10/27 03:21:32;;;;;;;12.37;5.87;;;13.00;99.90;;;;;;5029669;28;20335;-61
2021/10/27 03:24:01;;;;;;;14.67;6.40;;;12.90;99.90;;;;;;5033841;28;20272;-61
2021/10/27 03:26:29;;;;;;;6.53;5.87;;;12.90;99.90;;;;;;5048245;28;20204;-60
2021/10/27 03:28:58;;;;;;;10.57;6.20;;;12.90;99.90;;;;;;5049292;28;20211;-61
2021/10/27 03:31:26;;;;;;;13.70;6.10;;;12.90;99.90;;;;;;5041645;28;20199;-60
2021/10/27 03:33:55;;;;;;;14.87;6.13;;;12.90;99.90;;;;;;5044896;28;20216;-61
2021/10/27 03:36:25;;;;;;;10.57;6.70;;;12.90;99.90;;;;;;5033333;28;20292;-61
2021/10/27 03:38:53;;;;;;;12.20;6.00;;;12.80;99.90;;;;;;5044349;28;20287;-61
2021/10/27 03:41:21;;;;;;;11.93;6.63;;;12.80;99.90;;;;;;5048616;28;20200;-60
2021/10/27 03:43:50;;;;;;;10.90;6.77;;;12.80;99.90;;;;;;5049983;28;20205;-60
2021/10/27 03:46:43;;;;;;;15.53;6.70;;;12.80;99.90;;;;;;5050923;28;20290;-61
2021/10/27 03:49:11;;;;;;;11.67;6.60;;;12.70;99.90;;;;;;5030907;28;20283;-61
2021/10/27 03:51:41;;;;;;;11.57;6.53;;;12.70;99.90;;;;;;5032336;28;20220;-61
2021/10/27 03:54:10;;;;;;;13.77;7.23;;;12.70;99.90;;;;;;5048904;28;20219;-61
2021/10/27 03:56:38;;;;;;;11.33;6.60;;;12.70;99.90;;;;;;5049049;28;20307;-61
2021/10/27 03:59:07;;;;;;;11.20;6.63;;;12.70;99.90;;;;;;5050986;28;20284;-61
2021/10/27 04:01:35;;;;;;;16.97;7.50;;;12.70;99.90;;;;;;5041085;28;20197;-61
2021/10/27 04:04:04;;;;;;;15.10;6.90;;;12.70;99.90;;;;;;5053337;28;20201;-61
2021/10/27 04:06:32;;;;;;;13.37;6.93;;;12.70;99.90;;;;;;5049203;28;20302;-61
2021/10/27 04:09:02;;;;;;;11.97;6.97;;;12.60;99.90;;;;;;5047820;28;20275;-61
2021/10/27 04:11:30;;;;;;;13.50;7.67;;;12.60;99.90;;;;;;5048995;28;20204;-61
2021/10/27 04:14:00;;;;;;;13.17;7.33;;;12.70;99.90;;;;;;5048915;28;20200;-61
2021/10/27 04:16:28;;;;;;;12.27;7.07;;;12.70;99.90;;;;;;5060620;28;20279;-61
2021/10/27 04:18:56;;;;;;;9.57;7.10;;;12.70;99.90;;;;;;5046578;28;20216;-61
2021/10/27 04:21:24;;;;;;;11.17;7.00;;;12.70;99.90;;;;;;5048286;28;20567;-61
2021/10/27 04:23:53;;;;;;;11.23;7.77;;;12.60;99.90;;;;;;5049369;28;20305;-61
2021/10/27 04:26:23;;;;;;;14.43;7.47;;;12.60;99.90;;;;;;5049936;28;20271;-60
2021/10/27 04:28:52;;;;;;;14.73;7.00;;;12.60;99.90;;;;;;5049729;28;20471;-61
2021/10/27 04:31:20;;;;;;;15.00;7.13;;;12.60;99.90;;;;;;5036183;28;20674;-60
2021/10/27 04:33:49;;;;;;;13.90;7.60;;;12.60;99.90;;;;;;5049547;28;20225;-61
2021/10/27 04:36:18;;;;;;;15.63;7.90;;;12.60;99.90;;;;;;5046827;28;20316;-59
2021/10/27 04:38:47;;;;;;;15.03;7.47;;;12.60;99.90;;;;;;5046914;28;20231;-61
2021/10/27 04:41:17;;;;;;;14.60;7.53;;;12.60;99.90;;;;;;5053281;28;20577;-61
2021/10/27 04:43:47;;;;;;;14.00;7.40;;;12.60;99.90;;;;;;5047886;28;20283;-61
2021/10/27 04:46:16;;;;;;;13.77;7.50;;;12.70;99.90;;;;;;5036412;28;20617;-61
2021/10/27 04:48:44;;;;;;;12.67;6.67;;;12.70;99.90;;;;;;5049378;28;20268;-61
2021/10/27 04:51:13;;;;;;;16.37;7.10;;;12.80;99.90;;;;;;5056125;28;20712;-61
2021/10/27 04:53:41;;;;;;;12.00;7.33;;;12.80;99.90;;;;;;5050173;28;20223;-61
2021/10/27 04:56:09;;;;;;;17.60;7.47;;;12.80;99.90;;;;;;5023671;28;20723;-61
2021/10/27 04:58:38;;;;;;;12.70;7.40;;;12.70;99.90;;;;;;5021619;28;20198;-61
2021/10/27 05:01:08;;;;;;;13.50;7.50;;;12.70;99.90;;;;;;5024154;28;20668;-61
2021/10/27 05:03:41;;;;;;;14.60;7.53;;;12.70;99.90;;;;;;5029553;28;20258;-61
2021/10/27 05:06:10;;;;;;;13.77;7.47;;;12.70;99.90;;;;;;5027394;28;20658;-61
2021/10/27 05:08:39;;;;;;;15.40;8.13;;;12.70;99.90;;;;;;5027318;28;20194;-61
2021/10/27 05:11:08;;;;;;;11.90;7.07;;;12.70;99.90;;;;;;5022613;28;21045;-60
2021/10/27 05:13:36;;;;;;;19.53;8.53;;;12.70;99.90;;;;;;5024789;28;20280;-61
2021/10/27 05:16:05;;;;;;;15.10;7.47;;;12.70;99.90;;;;;;5024309;28;20300;-60
2021/10/27 05:18:35;;;;;;;16.33;7.50;;;12.70;99.90;;;;;;5027262;28;20494;-61
2021/10/27 05:21:03;;;;;;;11.00;7.70;;;12.70;99.90;;;;;;5022243;28;20193;-61
2021/10/27 05:23:31;;;;;;;10.87;7.70;;;12.60;99.90;;;;;;5016266;28;20194;-60
2021/10/27 05:26:00;;;;;;;13.73;7.90;;;12.60;99.90;;;;;;5029709;28;20603;-61
2021/10/27 05:28:28;;;;;;;12.23;7.87;;;12.60;99.90;;;;;;5024746;28;20199;-61
2021/10/27 05:30:56;;;;;;;14.87;8.60;;;12.60;99.90;;;;;;5022884;28;20281;-61
2021/10/27 05:33:25;;;;;;;16.00;8.07;;;12.60;99.90;;;;;;5020362;28;20209;-61
2021/10/27 05:35:55;;;;;;;17.57;7.77;;;12.60;99.90;;;;;;5026053;28;20219;-61
2021/10/27 05:38:23;;;;;;;19.40;8.47;;;12.60;99.90;;;;;;5027215;28;20221;-60
2021/10/27 05:40:52;;;;;;;14.00;8.17;;;12.60;99.90;;;;;;5019662;28;21776;-61
2021/10/27 05:43:20;;;;;;;14.17;8.03;;;12.40;99.90;;;;;;5029982;28;20205;-61
2021/10/27 05:45:53;;;;;;;16.57;8.80;;;12.50;99.90;;;;;;5024093;28;20221;-61
2021/10/27 05:48:23;;;;;;;16.33;9.00;;;12.40;99.90;;;;;;5042666;28;20193;-60
2021/10/27 05:51:10;;;;;;;16.03;9.20;;;12.30;99.90;;;;;;5026814;28;20193;-61
2021/10/27 05:56:26;;;;;;;16.80;8.97;;;12.40;99.90;;;;;;5036042;28;20256;-61
2021/10/27 05:58:55;;;;;;;15.63;8.50;;;12.50;99.90;;;;;;5047032;28;20201;-61
2021/10/27 06:01:24;;;;;;;14.83;9.00;;;12.50;99.90;;;;;;5044174;28;20727;-61
2021/10/27 06:03:53;;;;;;;14.30;8.40;;;12.50;99.90;;;;;;5028756;28;20193;-61
2021/10/27 06:06:21;;;;;;;15.13;8.77;;;12.50;99.90;;;;;;5044863;28;20199;-61
2021/10/27 06:08:52;;;;;;;14.93;9.07;;;12.50;99.90;;;;;;5047399;28;20196;-61
2021/10/27 06:11:21;;;;;;;17.43;8.87;;;12.50;99.90;;;;;;5045381;28;20280;-60
2021/10/27 06:13:50;;;;;;;22.97;9.47;;;12.60;99.90;;;;;;5052348;28;20697;-61
2021/10/27 06:16:18;;;;;;;13.03;8.37;;;12.60;99.90;;;;;;5049990;28;20319;-59
2021/10/27 06:18:46;;;;;;;19.67;9.63;;;12.60;99.90;;;;;;5045799;28;20193;-61
2021/10/27 06:21:17;;;;;;;20.10;9.47;;;12.60;99.90;;;;;;5046533;28;20279;-61
2021/10/27 06:23:45;;;;;;;17.87;10.10;;;12.70;99.90;;;;;;5046917;28;20275;-61
2021/10/27 06:26:17;;;;;;;16.07;9.23;;;12.60;99.90;;;;;;5024727;28;20275;-61
2021/10/27 06:28:56;;;;;;;21.77;11.23;;;12.60;99.90;;;;;;5048006;28;20295;-61
2021/10/27 06:31:30;;;;;;;16.67;10.97;;;12.70;99.90;;;;;;5052563;28;20676;-59
2021/10/27 06:34:04;;;;;;;22.97;13.23;;;12.70;99.90;;;;;;5054799;28;20619;-61
2021/10/27 06:36:40;;;;;;;19.63;12.93;;;12.70;99.90;;;;;;5039022;28;20267;-61
2021/10/27 06:47:47;;;;;;;22.97;14.37;;;12.50;99.90;;;;;;5011981;28;20295;-60
2021/10/27 06:50:16;;;;;;;21.50;15.20;;;12.70;99.90;;;;;;5045013;28;20228;-61
2021/10/27 06:52:44;;;;;;;26.43;16.43;;;12.70;99.90;;;;;;5048499;28;20275;-59
2021/10/27 06:55:13;;;;;;;25.27;15.30;;;12.70;99.90;;;;;;5030038;28;20276;-61
2021/10/27 06:57:43;;;;;;;31.07;16.67;;;12.70;99.90;;;;;;5043553;28;20243;-61
2021/10/27 07:00:18;;;;;;;26.03;16.93;;;12.70;99.90;;;;;;5046007;28;20665;-61
2021/10/27 07:03:03;;;;;;;29.30;18.80;;;12.70;99.90;;;;;;5026815;28;20200;-61
2021/10/27 07:05:47;;;;;;;32.73;18.73;;;12.70;99.90;;;;;;5041551;28;20227;-61
2021/10/27 07:16:39;;;;;;;30.63;19.93;;;12.70;99.90;;;;;;5022707;28;20255;-61
2021/10/27 07:19:08;;;;;;;35.07;22.60;;;12.60;99.90;;;;;;5030412;28;20205;-61
2021/10/27 07:21:38;;;;;;;27.53;18.83;;;12.70;99.90;;;;;;5043818;28;20607;-60
2021/10/27 07:24:07;;;;;;;33.83;26.17;;;12.70;99.90;;;;;;5047133;28;20205;-61
2021/10/27 07:26:37;;;;;;;29.27;21.20;;;12.70;99.90;;;;;;5043958;28;20650;-61
2021/10/27 07:29:07;;;;;;;35.83;27.57;;;12.60;99.90;;;;;;5047419;28;20221;-61
2021/10/27 07:31:35;;;;;;;33.47;22.03;;;12.70;99.90;;;;;;5048059;28;20580;-61
2021/10/27 07:34:09;;;;;;;29.33;20.70;;;12.60;99.90;;;;;;5043477;28;20196;-61
2021/10/27 07:39:53;;;;;;;27.00;17.87;;;12.70;99.90;;;;;;5044248;28;20287;-61
2021/10/27 07:39:55;;;;;;;31.03;19.30;;;12.80;99.90;;;;;;5032001;28;20280;-60
2021/10/27 07:42:24;;;;;;;28.67;19.03;;;12.80;99.90;;;;;;5045175;28;20224;-60
2021/10/27 07:44:53;;;;;;;29.97;18.20;;;12.80;99.90;;;;;;5048675;28;20204;-61
2021/10/27 07:47:21;;;;;;;26.83;18.87;;;12.90;99.90;;;;;;5049054;28;20656;-60
2021/10/27 07:49:50;;;;;;;26.83;17.93;;;12.80;99.90;;;;;;5049982;28;20277;-61
2021/10/27 07:52:18;;;;;;;25.37;17.13;;;12.80;99.90;;;;;;5034596;28;20199;-60
2021/10/27 07:54:46;;;;;;;31.17;16.67;;;12.80;99.90;;;;;;5049449;28;20197;-58
2021/10/27 07:57:16;;;;;;;25.17;16.53;;;12.80;99.90;;;;;;5044665;28;20239;-60
2021/10/27 07:59:44;;;;;;;32.13;18.60;;;12.90;99.90;;;;;;5053843;28;20196;-60
2021/10/27 08:02:14;;;;;;;31.43;17.30;;;12.90;99.90;;;;;;5049528;28;20219;-60
2021/10/27 08:04:42;;;;;;;26.70;16.57;;;12.90;99.90;;;;;;5042064;28;20223;-61
2021/10/27 08:07:10;;;;;;;27.90;16.40;;;12.90;99.90;;;;;;5041906;28;20228;-61
2021/10/27 08:09:39;;;;;;;24.30;16.93;;;12.80;99.90;;;;;;5054580;28;20682;-60
2021/10/27 08:12:08;;;;;;;26.53;17.30;;;12.70;99.90;;;;;;5046152;28;20303;-60
2021/10/27 08:14:37;;;;;;;25.33;17.03;;;12.70;99.90;;;;;;5047552;28;20197;-61
2021/10/27 08:17:23;;;;;;;26.13;16.67;;;12.70;99.90;;;;;;5050798;28;20848;-60
2021/10/27 08:19:52;;;;;;;28.73;18.03;;;12.80;99.90;;;;;;5030060;28;20239;-60
2021/10/27 08:22:20;;;;;;;25.37;16.57;;;12.80;99.90;;;;;;5038762;28;20235;-60
2021/10/27 08:24:51;;;;;;;31.10;17.33;;;12.80;99.90;;;;;;5050655;28;20203;-61
2021/10/27 08:27:31;;;;;;;24.67;17.30;;;12.80;99.90;;;;;;5045048;28;20199;-60
2021/10/27 08:30:05;;;;;;;29.70;17.73;;;12.80;99.90;;;;;;5047984;28;20684;-60
2021/10/27 08:32:49;;;;;;;30.40;17.43;;;12.80;99.90;;;;;;5040836;28;20258;-61
2021/10/27 08:35:18;;;;;;;30.37;16.70;;;12.90;99.90;;;;;;5050353;28;20240;-61
2021/10/27 08:37:48;;;;;;;28.10;16.70;;;13.00;99.90;;;;;;5049067;28;20215;-61
2021/10/27 08:40:19;;;;;;;26.23;16.77;;;13.00;99.90;;;;;;5032619;28;20238;-61
2021/10/27 08:42:49;;;;;;;31.90;17.27;;;13.00;99.90;;;;;;5050784;28;20237;-61
2021/10/27 08:45:18;;;;;;;29.37;17.70;;;13.00;99.90;;;;;;5062544;28;20199;-61
2021/10/27 08:47:51;;;;;;;24.73;17.83;;;13.00;99.90;;;;;;5047596;28;20307;-61
2021/10/27 08:50:21;;;;;;;32.23;17.90;;;13.00;99.90;;;;;;5054598;28;20560;-58
2021/10/27 08:52:49;;;;;;;29.00;17.73;;;13.00;99.90;;;;;;5049906;28;20214;-61
2021/10/27 08:55:18;;;;;;;28.23;16.90;;;13.00;99.90;;;;;;5051843;28;20292;-60
2021/10/27 08:57:49;;;;;;;28.87;18.50;;;12.90;99.90;;;;;;5044312;28;20693;-61
2021/10/27 09:00:22;;;;;;;31.80;20.50;;;13.00;99.90;;;;;;5055570;28;20296;-61
2021/10/27 09:37:39;;;;;;;36.07;26.37;;;13.20;99.90;;;;;;5033423;28;20224;-61
2021/10/27 09:43:29;;;;;;;25.00;14.30;;;13.20;99.90;;;;;;5025898;28;20191;-59
2021/10/27 10:05:29;;;;;;;18.03;11.87;;;13.30;99.90;;;;;;5052899;28;20202;-61
2021/10/27 10:07:58;;;;;;;15.83;11.67;;;13.30;99.90;;;;;;5043446;28;20341;-61
2021/10/27 10:10:27;;;;;;;18.03;12.37;;;13.40;99.90;;;;;;5035968;28;20275;-60
2021/10/27 10:12:56;;;;;;;15.53;12.07;;;13.50;99.90;;;;;;5054784;28;20291;-61
2021/10/27 10:15:27;;;;;;;21.97;14.30;;;13.50;99.90;;;;;;5045732;28;20275;-60
2021/10/27 10:17:56;;;;;;;20.23;12.93;;;13.60;99.90;;;;;;5029089;28;20644;-61
2021/10/27 10:20:25;;;;;;;22.67;12.87;;;13.70;99.90;;;;;;5036978;28;20216;-61
2021/10/27 10:23:22;;;;;;;16.97;12.23;;;13.60;99.90;;;;;;5044333;28;20214;-61
2021/10/27 10:25:53;;;;;;;16.40;12.30;;;13.60;99.90;;;;;;5049418;28;20458;-61
2021/10/27 10:28:26;;;;;;;22.13;12.70;;;13.80;99.90;;;;;;5032676;28;20217;-61
2021/10/27 10:30:57;;;;;;;19.83;12.67;;;13.90;99.90;;;;;;5028840;28;20239;-61
2021/10/27 10:33:41;;;;;;;20.50;12.33;;;14.10;99.90;;;;;;5033088;28;20304;-61
2021/10/27 10:36:13;;;;;;;14.60;10.83;;;14.20;99.90;;;;;;5043455;28;20199;-61
2021/10/27 10:39:03;;;;;;;14.00;10.63;;;14.20;99.90;;;;;;5040971;28;20969;-60
2021/10/27 11:03:08;;;;;;;14.90;9.90;;;15.30;99.90;;;;;;5018682;28;20333;-61
2021/10/27 11:23:41;;;;;;;15.07;10.53;;;16.60;99.90;;;;;;5046917;28;20277;-61
2021/10/27 11:37:44;;;;;;;14.97;10.50;;;17.40;99.90;;;;;;5048870;28;20232;-61
2021/10/27 11:40:28;;;;;;;20.63;11.03;;;17.40;99.90;;;;;;5046708;28;20653;-61
2021/10/27 11:42:59;;;;;;;12.70;10.27;;;17.20;99.90;;;;;;5029276;28;20216;-62
2021/10/27 11:45:40;;;;;;;15.27;9.73;;;17.20;99.90;;;;;;5045138;28;20296;-62
2021/10/27 11:48:18;;;;;;;15.73;9.37;;;17.40;99.90;;;;;;5046257;28;20264;-62
2021/10/27 11:50:48;;;;;;;14.13;9.47;;;17.50;99.90;;;;;;5048886;28;20633;-60
2021/10/27 11:53:25;;;;;;;14.47;11.83;;;17.50;99.90;;;;;;5030541;28;20543;-62
2021/10/27 11:55:55;;;;;;;16.90;10.67;;;17.80;99.90;;;;;;5046413;28;20232;-62
2021/10/27 11:58:36;;;;;;;19.20;11.13;;;17.90;99.90;;;;;;5047160;28;20319;-62
2021/10/27 12:01:06;;;;;;;14.63;9.47;;;18.10;99.90;;;;;;5042723;28;20684;-62
2021/10/27 12:03:42;;;;;;;12.50;8.83;;;18.40;99.90;;;;;;5033314;28;20280;-61
2021/10/27 12:06:34;;;;;;;10.17;8.27;;;18.60;99.90;;;;;;5042096;28;20196;-62
2021/10/27 12:15:20;;;;;;;8.43;6.50;;;18.40;99.90;;;;;;5036617;28;20296;-62
2021/10/27 12:18:02;;;;;;;9.20;6.50;;;18.60;99.90;;;;;;5044939;28;20315;-61
2021/10/27 12:20:37;;;;;;;14.93;8.87;;;18.60;99.90;;;;;;5046746;28;20239;-62
2021/10/27 12:23:19;;;;;;;14.37;8.30;;;18.80;99.90;;;;;;5051532;28;20192;-62
2021/10/27 12:25:47;;;;;;;15.57;8.77;;;19.00;99.90;;;;;;5041594;28;20216;-62
2021/10/27 12:28:29;;;;;;;10.80;8.47;;;18.60;99.90;;;;;;5049079;28;20246;-61
2021/10/27 12:30:58;;;;;;;9.33;6.30;;;18.40;99.90;;;;;;5040159;28;20193;-62
2021/10/27 12:33:40;;;;;;;8.03;5.57;;;18.60;99.90;;;;;;5044620;28;20288;-61
2021/10/27 12:36:25;;;;;;;10.07;7.97;;;18.90;99.90;;;;;;5028657;28;20577;-62
2021/10/27 12:39:09;;;;;;;7.43;5.90;;;19.10;99.90;;;;;;5025890;28;20213;-62
2021/10/27 12:41:37;;;;;;;7.33;4.70;;;19.30;99.90;;;;;;5024706;28;20727;-62
2021/10/27 12:44:23;;;;;;;7.60;4.83;;;19.20;99.90;;;;;;5049992;28;20708;-61
2021/10/27 12:47:13;;;;;;;9.17;5.33;;;19.00;99.90;;;;;;5046749;28;20685;-62
2021/10/27 12:49:43;;;;;;;8.23;5.30;;;18.60;99.90;;;;;;5046976;28;20841;-61
2021/10/27 12:52:29;;;;;;;7.87;5.13;;;18.20;99.90;;;;;;5043299;28;20189;-61
2021/10/27 12:55:26;;;;;;;5.87;4.90;;;18.10;99.90;;;;;;5048063;28;20279;-61
2021/10/27 12:58:02;;;;;;;5.10;4.43;;;18.20;99.90;;;;;;5033340;28;20708;-61
2021/10/27 13:00:36;;;;;;;7.00;5.03;;;17.90;99.90;;;;;;5026170;28;20216;-61
2021/10/27 13:06:13;;;;;;;3.87;3.50;;;18.00;99.90;;;;;;5038504;28;20730;-61
2021/10/27 13:14:26;;;;;;;4.60;4.20;;;18.00;99.90;;;;;;5025358;28;20247;-61
2021/10/27 13:20:19;;;;;;;7.83;4.50;;;17.90;99.90;;;;;;5039501;28;20584;-61
2021/10/27 13:31:07;;;;;;;4.67;4.10;;;17.60;99.90;;;;;;5041916;28;20281;-61
2021/10/27 13:33:36;;;;;;;6.20;4.53;;;17.50;99.90;;;;;;5043355;28;20198;-61
2021/10/27 13:36:05;;;;;;;5.00;4.10;;;17.40;99.90;;;;;;5044203;28;20617;-61
2021/10/27 13:38:35;;;;;;;4.57;4.03;;;17.30;99.90;;;;;;5041946;28;20320;-60
2021/10/27 13:41:08;;;;;;;4.37;4.07;;;17.40;99.90;;;;;;5049807;28;20195;-61
2021/10/27 13:43:39;;;;;;;4.60;4.03;;;17.40;99.90;;;;;;5044822;28;20196;-61
2021/10/27 13:46:21;;;;;;;4.43;4.03;;;17.50;99.90;;;;;;5046332;28;20282;-61
2021/10/27 14:08:20;;;;;;;4.93;4.40;;;17.80;99.90;;;;;;5050196;28;20295;-61
2021/10/27 14:10:57;;;;;;;4.53;4.20;;;17.80;99.90;;;;;;5041607;28;20236;-61
2021/10/27 14:13:39;;;;;;;4.97;4.27;;;17.80;99.90;;;;;;5039498;28;20230;-60
2021/10/27 14:16:22;;;;;;;8.07;4.27;;;17.80;99.90;;;;;;5045533;28;20730;-61
2021/10/27 14:19:02;;;;;;;5.47;3.97;;;17.80;99.90;;;;;;5043087;28;20232;-61
2021/10/27 15:19:54;;;;;;;4.43;3.50;;;16.50;99.90;;;;;;5044634;28;20751;-61
2021/10/27 15:22:36;;;;;;;4.80;3.53;;;16.40;99.90;;;;;;5047324;28;20272;-61
2021/10/27 15:28:12;;;;;;;4.07;3.20;;;16.20;99.90;;;;;;5041959;28;21615;-61
2021/10/27 15:30:48;;;;;;;6.20;3.47;;;16.20;99.90;;;;;;5043473;28;20197;-61
2021/10/27 15:33:25;;;;;;;6.40;3.27;;;16.10;99.90;;;;;;5046964;28;20254;-61
2021/10/27 15:36:04;;;;;;;5.03;3.63;;;16.10;99.90;;;;;;5051072;28;20232;-61
2021/10/27 15:41:35;;;;;;;5.00;3.30;;;16.00;99.90;;;;;;5034047;28;20211;-61
2021/10/27 15:52:38;;;;;;;5.27;3.10;;;15.80;99.90;;;;;;5046593;28;20263;-61
2021/10/27 15:55:08;;;;;;;5.67;3.93;;;15.80;99.90;;;;;;5050498;28;20276;-61
2021/10/27 15:57:36;;;;;;;7.63;3.50;;;15.70;99.90;;;;;;5047740;28;20338;-61
2021/10/27 16:00:06;;;;;;;5.33;3.50;;;15.70;99.90;;;;;;5045317;28;20227;-60
2021/10/27 16:02:34;;;;;;;5.57;4.50;;;15.60;99.90;;;;;;5047152;28;20201;-61
2021/10/27 16:05:05;;;;;;;8.20;4.90;;;15.50;99.90;;;;;;5046671;28;20327;-61
2021/10/27 16:07:42;;;;;;;11.10;5.50;;;15.40;99.90;;;;;;5049042;28;20205;-60
2021/10/27 16:10:15;;;;;;;11.67;6.07;;;15.40;99.90;;;;;;5043973;28;20204;-61
2021/10/27 16:12:44;;;;;;;7.90;6.03;;;15.40;99.90;;;;;;5049911;28;20239;-61
2021/10/27 16:15:19;;;;;;;13.43;7.83;;;15.30;99.90;;;;;;5051755;28;20367;-60
2021/10/27 16:17:47;;;;;;;8.80;6.80;;;15.20;99.90;;;;;;5045706;28;20315;-61
2021/10/27 16:20:16;;;;;;;8.80;7.07;;;15.10;99.90;;;;;;5042127;28;20212;-61
2021/10/27 16:22:46;;;;;;;10.83;6.63;;;15.00;99.90;;;;;;5045928;28;20279;-61
2021/10/27 16:25:14;;;;;;;9.57;6.33;;;15.00;99.90;;;;;;5038280;28;20205;-61
2021/10/27 16:27:47;;;;;;;19.83;14.93;;;14.90;99.90;;;;;;5040786;28;20724;-61
2021/10/27 16:30:16;;;;;;;17.33;12.73;;;14.80;99.90;;;;;;5045460;28;20548;-61
2021/10/27 16:32:44;;;;;;;38.33;18.33;;;14.70;99.90;;;;;;5045532;28;20251;-61
2021/10/27 16:35:13;;;;;;;15.07;11.03;;;14.70;99.90;;;;;;5043889;28;20196;-61
2021/10/27 16:37:46;;;;;;;9.53;7.43;;;14.70;99.90;;;;;;5039984;28;20672;-61
2021/10/27 16:40:14;;;;;;;41.77;25.53;;;14.60;99.90;;;;;;5022366;28;20640;-61
2021/10/27 16:42:42;;;;;;;17.00;11.53;;;14.40;99.90;;;;;;5045081;28;20447;-61
2021/10/27 16:45:14;;;;;;;12.93;8.40;;;14.40;99.90;;;;;;5045460;28;20205;-61
2021/10/27 16:47:42;;;;;;;18.43;9.17;;;14.40;99.90;;;;;;5052248;28;20538;-60
2021/10/27 16:50:13;;;;;;;14.27;8.07;;;14.30;99.90;;;;;;5046293;28;20213;-61
2021/10/27 16:52:47;;;;;;;11.53;7.93;;;14.30;99.90;;;;;;5048113;28;20208;-61
2021/10/27 16:55:19;;;;;;;11.60;6.80;;;14.20;99.90;;;;;;5027598;28;20228;-60
2021/10/27 16:57:48;;;;;;;11.13;7.03;;;14.10;99.90;;;;;;5042231;28;20257;-60
2021/10/27 17:00:19;;;;;;;12.00;8.07;;;14.10;99.90;;;;;;5047766;28;20213;-61
2021/10/27 17:02:48;;;;;;;15.00;10.70;;;14.00;99.90;;;;;;5040600;28;20288;-61
2021/10/27 17:05:17;;;;;;;8.77;7.67;;;13.90;99.90;;;;;;5043648;28;20220;-60